Time;durP1;ratioP1;P1;durP2;ratioP2;P2;SDS_P1;SDS_P2;PMS_P1;PMS_P2;Temp;Humidity;BMP_temperature;BMP_pressure;BME280_temperature;BME280_humidity;BME280_pressure;Samples;Min_cycle;Max_cycle;Signal;HPM_P1;HPM_P2
2022/10/16 00:00:48;;;;;;;2.77;2.23;;;15.70;99.90;;;;;;5038568;28;21200;-86
2022/10/16 00:03:14;;;;;;;3.77;2.10;;;15.70;99.90;;;;;;5033481;28;20662;-87
2022/10/16 00:05:42;;;;;;;2.50;2.07;;;15.60;99.90;;;;;;5045107;28;20641;-85
2022/10/16 00:08:11;;;;;;;1.80;1.70;;;15.70;99.90;;;;;;5047897;28;20658;-87
2022/10/16 00:10:38;;;;;;;4.10;2.37;;;15.60;99.90;;;;;;5042148;28;20681;-87
2022/10/16 00:13:08;;;;;;;3.67;2.00;;;15.60;99.90;;;;;;5040661;28;21210;-87
2022/10/16 00:15:36;;;;;;;2.20;2.10;;;15.60;99.90;;;;;;5045634;28;20637;-87
2022/10/16 00:18:02;;;;;;;2.80;2.40;;;15.50;99.90;;;;;;5043092;28;21022;-88
2022/10/16 00:20:31;;;;;;;2.73;2.53;;;15.50;99.90;;;;;;5046661;28;20625;-88
2022/10/16 00:22:58;;;;;;;2.90;2.17;;;15.40;99.90;;;;;;5043374;28;20679;-87
2022/10/16 00:25:25;;;;;;;5.40;2.00;;;15.40;99.90;;;;;;5047593;28;20581;-87
2022/10/16 00:27:52;;;;;;;4.73;3.07;;;15.40;99.90;;;;;;5041608;28;20685;-87
2022/10/16 00:30:20;;;;;;;6.63;2.20;;;15.30;99.90;;;;;;5045615;28;20669;-87
2022/10/16 00:32:47;;;;;;;2.40;2.30;;;15.40;99.90;;;;;;5044872;28;20630;-87
2022/10/16 00:35:14;;;;;;;9.40;1.90;;;15.30;99.90;;;;;;5036777;28;20630;-87
2022/10/16 00:37:40;;;;;;;2.80;2.60;;;15.20;99.90;;;;;;5039267;28;21212;-87
2022/10/16 00:40:08;;;;;;;3.73;2.10;;;15.20;99.90;;;;;;5044437;28;20625;-87
2022/10/16 00:42:35;;;;;;;8.10;2.70;;;15.10;99.90;;;;;;5040235;28;20642;-87
2022/10/16 00:45:02;;;;;;;3.20;2.90;;;15.10;99.90;;;;;;5036903;28;20736;-86
2022/10/16 00:47:35;;;;;;;3.60;2.20;;;15.00;99.90;;;;;;5047659;28;20664;-86
2022/10/16 00:50:08;;;;;;;3.23;2.17;;;15.00;99.90;;;;;;5045535;28;20658;-86
2022/10/16 00:52:35;;;;;;;4.13;1.90;;;14.90;99.90;;;;;;5037382;28;20640;-87
2022/10/16 00:55:04;;;;;;;3.03;2.13;;;14.90;99.90;;;;;;5040908;28;20634;-87
2022/10/16 00:57:31;;;;;;;2.93;2.10;;;14.90;99.90;;;;;;5045094;28;20637;-87
2022/10/16 00:59:58;;;;;;;2.97;2.27;;;14.80;99.90;;;;;;5034299;28;20721;-87
2022/10/16 01:02:25;;;;;;;5.83;1.97;;;14.70;99.90;;;;;;5040680;28;20745;-88
2022/10/16 01:04:55;;;;;;;4.97;2.23;;;14.70;99.90;;;;;;5041976;28;20639;-87
2022/10/16 01:07:33;;;;;;;5.27;2.40;;;14.70;99.90;;;;;;5043764;28;20775;-86
2022/10/16 01:10:08;;;;;;;2.60;1.90;;;14.70;99.90;;;;;;5042185;28;20668;-85
2022/10/16 01:12:45;;;;;;;2.53;2.33;;;14.60;99.90;;;;;;5041971;28;20613;-86
2022/10/16 01:15:18;;;;;;;5.30;2.80;;;14.60;99.90;;;;;;5039059;28;20633;-86
2022/10/16 01:17:52;;;;;;;2.80;2.07;;;14.60;99.90;;;;;;5039377;28;20658;-86
2022/10/16 01:20:28;;;;;;;4.37;2.20;;;14.70;99.90;;;;;;5039114;28;21033;-86
2022/10/16 01:23:06;;;;;;;5.70;1.97;;;14.60;99.90;;;;;;5046310;28;20625;-86
2022/10/16 01:25:43;;;;;;;2.07;1.87;;;14.60;99.90;;;;;;5046702;28;20629;-86
2022/10/16 01:28:14;;;;;;;4.90;2.30;;;14.60;99.90;;;;;;5040248;28;20653;-85
2022/10/16 01:30:44;;;;;;;3.37;1.73;;;14.60;99.90;;;;;;5042527;28;20653;-85
2022/10/16 01:33:16;;;;;;;3.47;1.80;;;14.60;99.90;;;;;;5039819;28;21498;-85
2022/10/16 01:35:47;;;;;;;2.07;1.97;;;14.60;99.90;;;;;;5045525;28;20629;-86
2022/10/16 01:38:21;;;;;;;7.53;2.80;;;14.70;99.90;;;;;;5042157;28;20660;-86
2022/10/16 01:40:53;;;;;;;2.30;2.03;;;14.60;99.90;;;;;;5037836;28;21152;-85
2022/10/16 01:43:26;;;;;;;5.07;1.90;;;14.60;99.90;;;;;;5041187;28;20614;-87
2022/10/16 01:45:53;;;;;;;2.97;1.53;;;14.60;99.90;;;;;;5041907;28;20652;-86
2022/10/16 01:48:23;;;;;;;2.20;1.73;;;14.60;99.90;;;;;;5042834;28;21219;-86
2022/10/16 01:50:56;;;;;;;2.40;1.90;;;14.60;99.90;;;;;;5045679;28;20732;-86
2022/10/16 01:53:24;;;;;;;5.63;2.60;;;14.60;99.90;;;;;;5035643;28;20635;-86
2022/10/16 01:55:55;;;;;;;2.90;2.23;;;14.30;99.90;;;;;;5042158;28;20626;-86
2022/10/16 01:58:25;;;;;;;6.33;2.97;;;14.60;99.90;;;;;;5036005;28;20653;-87
2022/10/16 02:00:54;;;;;;;4.17;3.17;;;14.60;99.90;;;;;;5038595;28;20614;-87
2022/10/16 02:03:21;;;;;;;2.67;2.43;;;14.60;99.90;;;;;;5036736;28;21226;-86
2022/10/16 02:05:52;;;;;;;7.50;2.33;;;14.70;99.90;;;;;;5043251;28;20626;-86
2022/10/16 02:08:19;;;;;;;3.50;2.20;;;14.20;99.90;;;;;;5043947;28;21504;-86
2022/10/16 02:10:46;;;;;;;4.40;2.17;;;14.70;99.90;;;;;;5039441;28;20665;-85
2022/10/16 02:13:16;;;;;;;4.77;2.50;;;14.70;99.90;;;;;;5042435;28;20627;-85
2022/10/16 02:15:44;;;;;;;3.50;2.27;;;14.70;99.90;;;;;;5043495;28;21179;-85
2022/10/16 02:18:12;;;;;;;5.10;2.00;;;14.70;99.90;;;;;;5036645;28;21246;-86
2022/10/16 02:20:46;;;;;;;4.23;2.00;;;14.70;99.90;;;;;;5041872;28;20626;-85
2022/10/16 02:23:19;;;;;;;5.30;1.97;;;14.70;99.90;;;;;;5039083;28;20623;-86
2022/10/16 02:25:48;;;;;;;9.33;3.00;;;14.70;99.90;;;;;;5039668;28;20641;-85
2022/10/16 02:28:19;;;;;;;5.13;3.03;;;14.50;99.90;;;;;;5038834;28;20653;-85
2022/10/16 02:30:51;;;;;;;6.63;3.17;;;14.60;99.90;;;;;;5038618;28;20669;-85
2022/10/16 02:33:21;;;;;;;3.43;2.77;;;14.70;99.90;;;;;;5040955;28;20626;-85
2022/10/16 02:35:50;;;;;;;3.93;2.77;;;14.80;99.90;;;;;;5037181;28;20649;-85
2022/10/16 02:38:18;;;;;;;4.40;2.63;;;14.70;99.90;;;;;;5042155;28;21030;-87
2022/10/16 02:40:45;;;;;;;3.00;2.57;;;14.70;99.90;;;;;;5041114;28;20631;-86
2022/10/16 02:43:12;;;;;;;4.00;2.60;;;14.80;99.90;;;;;;5037426;28;21241;-86
2022/10/16 02:45:39;;;;;;;4.70;3.37;;;14.80;99.90;;;;;;5040160;28;20633;-87
2022/10/16 02:48:07;;;;;;;4.67;3.27;;;14.80;99.90;;;;;;5043443;28;20653;-85
2022/10/16 02:50:34;;;;;;;3.17;2.80;;;14.70;99.90;;;;;;5041377;28;21284;-86
2022/10/16 02:53:01;;;;;;;9.37;2.80;;;14.90;99.90;;;;;;5044296;28;20637;-86
2022/10/16 02:55:28;;;;;;;3.17;2.77;;;14.70;99.90;;;;;;5042084;28;21012;-86
2022/10/16 02:57:55;;;;;;;5.83;2.70;;;14.80;99.90;;;;;;5038808;28;20650;-86
2022/10/16 03:00:22;;;;;;;5.50;2.77;;;14.80;99.90;;;;;;5043753;28;21228;-87
2022/10/16 03:02:49;;;;;;;4.20;2.40;;;14.80;99.90;;;;;;5044453;28;20625;-86
2022/10/16 03:05:17;;;;;;;2.80;2.37;;;14.70;99.90;;;;;;5035182;28;20631;-86
2022/10/16 03:07:44;;;;;;;3.30;2.60;;;14.80;99.90;;;;;;5046737;28;20650;-86
2022/10/16 03:10:11;;;;;;;7.10;2.80;;;14.60;99.90;;;;;;5047450;28;21033;-86
2022/10/16 03:12:38;;;;;;;4.13;2.47;;;14.80;99.90;;;;;;5046639;28;20629;-86
2022/10/16 03:15:06;;;;;;;6.83;3.10;;;14.70;99.90;;;;;;5042188;28;20653;-86
2022/10/16 03:17:34;;;;;;;5.10;2.60;;;14.70;99.90;;;;;;5042922;28;20664;-85
2022/10/16 03:20:01;;;;;;;5.47;2.67;;;14.70;99.90;;;;;;5038879;28;21195;-85
2022/10/16 03:22:29;;;;;;;3.20;2.60;;;14.70;99.90;;;;;;5044441;28;20622;-85
2022/10/16 03:24:56;;;;;;;7.30;2.87;;;14.70;99.90;;;;;;5041678;28;20634;-85
2022/10/16 03:27:23;;;;;;;2.73;2.53;;;14.50;99.90;;;;;;5041645;28;20650;-86
2022/10/16 03:29:50;;;;;;;3.93;2.37;;;14.60;99.90;;;;;;5044115;28;20632;-86
2022/10/16 03:32:16;;;;;;;6.13;2.80;;;14.60;99.90;;;;;;5033620;28;20639;-86
2022/10/16 03:34:43;;;;;;;5.90;2.77;;;14.60;99.90;;;;;;5037744;28;20645;-85
2022/10/16 03:37:10;;;;;;;7.77;2.60;;;14.60;99.90;;;;;;5043966;28;20664;-86
2022/10/16 03:39:38;;;;;;;5.53;2.30;;;14.50;99.90;;;;;;5047425;28;20634;-86
2022/10/16 03:42:05;;;;;;;3.93;2.10;;;14.60;99.90;;;;;;5047237;28;20630;-86
2022/10/16 03:44:32;;;;;;;12.03;3.17;;;14.60;99.90;;;;;;5043901;28;20953;-85
2022/10/16 03:46:58;;;;;;;7.97;2.73;;;14.60;99.90;;;;;;5046373;28;20645;-86
2022/10/16 03:49:25;;;;;;;4.23;2.33;;;14.60;99.90;;;;;;5044493;28;20618;-86
2022/10/16 03:51:52;;;;;;;3.93;2.33;;;14.50;99.90;;;;;;5042848;28;20676;-86
2022/10/16 03:54:19;;;;;;;4.30;2.80;;;14.60;99.90;;;;;;5045554;28;20633;-86
2022/10/16 03:56:47;;;;;;;5.73;3.33;;;14.60;99.90;;;;;;5050400;28;20657;-86
2022/10/16 03:59:14;;;;;;;5.07;1.87;;;14.50;99.90;;;;;;5048388;28;20641;-86
2022/10/16 04:01:40;;;;;;;2.90;2.23;;;14.50;99.90;;;;;;5043945;28;20622;-86
2022/10/16 04:04:07;;;;;;;3.73;2.13;;;14.50;99.90;;;;;;5042356;28;20626;-86
2022/10/16 04:06:34;;;;;;;8.90;2.33;;;14.40;99.90;;;;;;5040819;28;20638;-85
2022/10/16 04:09:00;;;;;;;2.80;1.60;;;14.40;99.90;;;;;;5050790;28;20616;-86
2022/10/16 04:11:28;;;;;;;3.80;2.20;;;14.20;99.90;;;;;;5043936;28;21033;-86
2022/10/16 04:13:56;;;;;;;3.57;1.70;;;14.00;99.90;;;;;;5043657;28;20660;-86
2022/10/16 04:16:23;;;;;;;4.87;2.80;;;14.40;99.90;;;;;;5044467;28;20634;-85
2022/10/16 04:18:50;;;;;;;2.70;1.57;;;14.30;99.90;;;;;;5042648;28;20649;-86
2022/10/16 04:21:17;;;;;;;3.40;1.53;;;14.10;99.90;;;;;;5041267;28;20641;-87
2022/10/16 04:23:44;;;;;;;4.73;1.87;;;13.90;99.90;;;;;;5041525;28;20633;-87
2022/10/16 04:26:11;;;;;;;5.00;2.23;;;14.30;99.90;;;;;;5040127;28;20637;-87
2022/10/16 04:28:37;;;;;;;5.00;2.07;;;14.30;99.90;;;;;;5042473;28;20745;-87
2022/10/16 04:31:06;;;;;;;3.80;1.80;;;14.20;99.90;;;;;;5038329;28;20661;-87
2022/10/16 04:33:34;;;;;;;3.83;2.60;;;14.30;99.90;;;;;;5047526;28;20991;-87
2022/10/16 04:36:01;;;;;;;6.63;1.77;;;13.90;99.90;;;;;;5047006;28;20633;-87
2022/10/16 04:38:28;;;;;;;2.37;2.23;;;13.90;99.90;;;;;;5043391;28;20654;-87
2022/10/16 04:40:55;;;;;;;5.07;1.80;;;14.00;99.90;;;;;;5041913;28;20640;-86
2022/10/16 04:43:22;;;;;;;2.40;1.70;;;13.90;99.90;;;;;;5042385;28;21161;-86
2022/10/16 04:45:50;;;;;;;4.70;1.57;;;14.00;99.90;;;;;;5045502;28;20638;-86
2022/10/16 04:48:19;;;;;;;5.40;1.70;;;14.20;99.90;;;;;;5042835;28;20756;-87
2022/10/16 04:50:46;;;;;;;2.40;1.77;;;14.00;99.90;;;;;;5043684;28;20672;-86
2022/10/16 04:53:13;;;;;;;4.83;1.90;;;14.40;99.90;;;;;;5040101;28;20630;-87
2022/10/16 04:55:39;;;;;;;4.70;1.70;;;14.50;99.90;;;;;;5037425;28;21259;-86
2022/10/16 04:58:06;;;;;;;4.73;1.93;;;14.40;99.90;;;;;;5046783;28;20923;-86
2022/10/16 05:00:39;;;;;;;3.57;1.80;;;14.40;99.90;;;;;;5042398;28;20638;-86
2022/10/16 05:03:08;;;;;;;4.17;1.80;;;14.40;99.90;;;;;;5045901;28;20642;-86
2022/10/16 05:05:37;;;;;;;2.83;1.53;;;14.30;99.90;;;;;;5038434;28;20683;-87
2022/10/16 05:08:04;;;;;;;4.30;1.93;;;14.40;99.90;;;;;;5047034;28;20662;-87
2022/10/16 05:10:30;;;;;;;2.50;2.00;;;14.40;99.90;;;;;;5043023;28;20629;-87
2022/10/16 05:12:57;;;;;;;2.03;1.73;;;14.40;99.90;;;;;;5045681;28;20636;-86
2022/10/16 05:15:25;;;;;;;5.57;1.90;;;14.40;99.90;;;;;;5042532;28;20617;-87
2022/10/16 05:17:54;;;;;;;5.40;2.03;;;13.90;99.90;;;;;;5047561;28;20684;-87
2022/10/16 05:20:21;;;;;;;7.57;1.60;;;14.30;99.90;;;;;;5045367;28;20633;-87
2022/10/16 05:22:49;;;;;;;8.43;1.87;;;14.40;99.90;;;;;;5043487;28;20635;-87
2022/10/16 05:25:16;;;;;;;3.17;1.60;;;14.40;99.90;;;;;;5044651;28;20631;-87
2022/10/16 05:27:43;;;;;;;2.80;1.60;;;14.40;99.90;;;;;;5043200;28;20680;-87
2022/10/16 05:30:10;;;;;;;4.10;1.50;;;14.30;99.90;;;;;;5042824;28;20625;-87
2022/10/16 05:32:37;;;;;;;1.50;1.40;;;14.40;99.90;;;;;;5045806;28;20665;-87
2022/10/16 05:35:04;;;;;;;2.03;1.43;;;14.50;99.90;;;;;;5041832;28;20618;-87
2022/10/16 05:37:31;;;;;;;5.57;2.20;;;14.40;99.90;;;;;;5044326;28;20653;-87
2022/10/16 05:39:59;;;;;;;3.73;1.40;;;14.40;99.90;;;;;;5040134;28;20650;-87
2022/10/16 05:42:26;;;;;;;1.90;1.47;;;14.30;99.90;;;;;;5046926;28;20635;-86
2022/10/16 05:44:52;;;;;;;5.33;1.60;;;13.90;99.90;;;;;;5042117;28;20642;-86
2022/10/16 05:47:20;;;;;;;2.40;1.47;;;14.30;99.90;;;;;;5045381;28;20662;-86
2022/10/16 05:49:47;;;;;;;2.97;1.63;;;14.40;99.90;;;;;;5043909;28;20703;-87
2022/10/16 05:52:14;;;;;;;3.27;1.70;;;14.10;99.90;;;;;;5040294;28;20671;-87
2022/10/16 05:54:44;;;;;;;4.40;1.67;;;14.20;99.90;;;;;;5042798;28;20638;-87
2022/10/16 05:57:12;;;;;;;3.57;1.60;;;14.20;99.90;;;;;;5041382;28;20655;-86
2022/10/16 05:59:39;;;;;;;4.10;1.90;;;14.40;99.90;;;;;;5045565;28;20634;-86
2022/10/16 06:02:06;;;;;;;3.83;1.93;;;13.70;99.90;;;;;;5044227;28;20630;-87
2022/10/16 06:04:32;;;;;;;3.80;1.63;;;14.20;99.90;;;;;;5038152;28;20650;-87
2022/10/16 06:07:01;;;;;;;5.37;1.83;;;14.30;99.90;;;;;;5044488;28;20668;-88
2022/10/16 06:09:27;;;;;;;5.03;1.50;;;14.10;99.90;;;;;;5043908;28;20683;-86
2022/10/16 06:11:54;;;;;;;4.27;1.90;;;14.10;99.90;;;;;;5044871;28;20669;-87
2022/10/16 06:14:22;;;;;;;2.10;1.80;;;14.40;99.90;;;;;;5038062;28;20633;-87
2022/10/16 06:16:49;;;;;;;2.27;1.60;;;14.00;99.90;;;;;;5038867;28;20775;-86
2022/10/16 06:19:17;;;;;;;2.10;1.83;;;14.40;99.90;;;;;;5040404;28;20630;-86
2022/10/16 06:21:44;;;;;;;3.90;1.67;;;14.40;99.90;;;;;;5041390;28;20638;-86
2022/10/16 06:24:11;;;;;;;2.60;1.40;;;14.50;99.90;;;;;;5044871;28;20629;-86
2022/10/16 06:26:38;;;;;;;5.93;1.60;;;14.50;99.90;;;;;;5043606;28;20630;-88
2022/10/16 06:29:06;;;;;;;3.03;1.43;;;14.60;99.90;;;;;;5040246;28;20630;-86
2022/10/16 06:31:34;;;;;;;3.77;1.70;;;14.60;99.90;;;;;;5039482;28;20673;-85
2022/10/16 06:34:01;;;;;;;2.67;1.20;;;14.70;99.90;;;;;;5042655;28;20737;-86
2022/10/16 06:36:28;;;;;;;4.17;1.70;;;14.70;99.90;;;;;;5042335;28;20660;-86
2022/10/16 06:38:55;;;;;;;6.50;1.57;;;14.80;99.90;;;;;;5044679;28;20648;-87
2022/10/16 06:41:23;;;;;;;7.80;1.70;;;14.90;99.90;;;;;;5043548;28;21031;-87
2022/10/16 06:43:50;;;;;;;2.53;1.30;;;15.00;99.90;;;;;;5041448;28;20634;-86
2022/10/16 06:46:19;;;;;;;3.50;1.70;;;15.00;99.90;;;;;;5039237;28;20638;-87
2022/10/16 06:48:48;;;;;;;1.50;1.40;;;15.20;99.90;;;;;;5042605;28;20666;-86
2022/10/16 06:51:17;;;;;;;8.97;1.90;;;15.20;99.90;;;;;;5044236;28;21019;-87
2022/10/16 06:53:45;;;;;;;5.50;1.87;;;15.30;99.90;;;;;;5044686;28;20634;-88
2022/10/16 06:56:14;;;;;;;1.93;1.73;;;15.40;99.90;;;;;;5035715;28;20627;-88
2022/10/16 06:58:42;;;;;;;6.13;1.90;;;15.50;99.90;;;;;;5038430;28;20654;-88
2022/10/16 07:01:09;;;;;;;4.30;1.90;;;15.60;99.90;;;;;;5042305;28;20627;-88
2022/10/16 07:03:37;;;;;;;3.77;1.60;;;15.70;99.90;;;;;;5038648;28;20634;-88
2022/10/16 07:06:07;;;;;;;4.40;1.93;;;15.80;99.90;;;;;;5039549;28;20695;-88
2022/10/16 07:08:35;;;;;;;1.77;1.67;;;15.80;99.90;;;;;;5043287;28;20645;-88
2022/10/16 07:11:02;;;;;;;6.83;2.03;;;15.90;99.90;;;;;;5045025;28;20633;-88
2022/10/16 07:13:28;;;;;;;6.60;6.00;;;15.90;99.90;;;;;;5041770;28;20664;-88
2022/10/16 07:15:55;;;;;;;5.53;3.43;;;16.00;99.90;;;;;;5039550;28;20636;-88
2022/10/16 07:18:26;;;;;;;5.40;3.87;;;16.10;99.90;;;;;;5043880;28;21032;-88
2022/10/16 07:20:53;;;;;;;7.07;5.60;;;16.20;99.90;;;;;;5039942;28;20621;-89
2022/10/16 07:23:21;;;;;;;8.57;4.43;;;16.20;99.90;;;;;;5038048;28;20626;-86
2022/10/16 07:25:55;;;;;;;5.57;3.40;;;16.20;99.90;;;;;;5039053;28;21265;-90
2022/10/16 07:28:21;;;;;;;5.53;2.40;;;16.20;99.90;;;;;;5035739;28;20645;-88
2022/10/16 07:30:48;;;;;;;6.00;1.90;;;16.20;99.90;;;;;;5045769;28;21272;-89
2022/10/16 07:33:15;;;;;;;2.50;2.30;;;16.10;99.90;;;;;;5040314;28;20685;-87
2022/10/16 07:35:49;;;;;;;3.00;2.07;;;16.20;99.90;;;;;;5042401;28;20634;-88
2022/10/16 07:38:15;;;;;;;2.30;2.00;;;16.10;99.90;;;;;;5040306;28;20679;-87
2022/10/16 07:40:44;;;;;;;6.00;2.47;;;16.20;99.90;;;;;;5042630;28;20648;-87
2022/10/16 07:43:10;;;;;;;7.03;2.30;;;16.10;99.90;;;;;;5046949;28;21171;-87
2022/10/16 07:45:37;;;;;;;6.67;2.30;;;16.10;99.90;;;;;;5042151;28;20661;-87
2022/10/16 07:48:04;;;;;;;2.73;2.53;;;16.10;99.90;;;;;;5038316;28;20655;-87
2022/10/16 07:50:31;;;;;;;4.13;2.67;;;16.20;99.90;;;;;;5035370;28;20669;-88
2022/10/16 07:52:57;;;;;;;4.13;2.50;;;16.20;99.90;;;;;;5044270;28;20669;-88
2022/10/16 07:55:24;;;;;;;2.60;2.40;;;16.20;99.90;;;;;;5034904;28;20645;-87
2022/10/16 07:57:52;;;;;;;12.57;2.37;;;16.30;99.90;;;;;;5042677;28;20728;-87
2022/10/16 08:00:19;;;;;;;2.40;2.10;;;16.30;99.90;;;;;;5045267;28;21164;-88
2022/10/16 08:02:46;;;;;;;1.87;1.73;;;16.20;99.90;;;;;;5021035;28;20633;-87
2022/10/16 08:05:12;;;;;;;2.23;2.03;;;16.40;99.90;;;;;;5039223;28;21193;-87
2022/10/16 08:07:39;;;;;;;6.50;2.07;;;16.40;99.90;;;;;;5039381;28;20660;-87
2022/10/16 08:10:07;;;;;;;2.20;1.70;;;16.50;99.90;;;;;;5042724;28;20635;-87
2022/10/16 08:12:34;;;;;;;3.20;1.43;;;16.60;99.90;;;;;;5042887;28;20680;-87
2022/10/16 08:15:02;;;;;;;2.53;2.33;;;16.60;99.90;;;;;;5043572;28;20640;-87
2022/10/16 08:17:28;;;;;;;2.33;1.90;;;16.60;99.90;;;;;;5040334;28;20698;-87
2022/10/16 08:19:55;;;;;;;3.53;2.87;;;16.70;99.90;;;;;;5036799;28;21259;-87
2022/10/16 08:22:22;;;;;;;2.90;1.90;;;16.80;99.90;;;;;;5042382;28;20658;-87
2022/10/16 08:24:49;;;;;;;3.00;1.90;;;16.90;99.90;;;;;;5032307;28;20644;-88
2022/10/16 08:27:15;;;;;;;3.33;2.30;;;17.10;99.90;;;;;;5045268;28;20622;-87
2022/10/16 08:29:42;;;;;;;2.67;1.90;;;17.10;99.90;;;;;;5041872;28;21110;-87
2022/10/16 08:32:10;;;;;;;1.73;1.63;;;17.00;99.90;;;;;;5044254;28;20677;-86
2022/10/16 08:34:37;;;;;;;4.97;2.00;;;17.10;99.90;;;;;;5042975;28;20633;-86
2022/10/16 08:37:04;;;;;;;2.17;1.70;;;17.40;99.90;;;;;;5043945;28;20628;-88
2022/10/16 08:39:31;;;;;;;2.33;1.77;;;17.70;99.90;;;;;;5042762;28;20649;-89
2022/10/16 08:42:14;;;;;;;4.00;1.97;;;17.90;99.90;;;;;;5047088;28;20661;-87
2022/10/16 08:45:02;;;;;;;3.00;2.00;;;18.00;99.90;;;;;;5045064;28;20630;-88
2022/10/16 08:47:44;;;;;;;2.60;1.87;;;18.10;99.90;;;;;;5051875;28;20628;-87
2022/10/16 08:50:12;;;;;;;5.10;1.90;;;17.90;99.90;;;;;;5044403;28;20625;-88
2022/10/16 08:52:41;;;;;;;4.07;2.00;;;18.10;99.90;;;;;;5045465;28;21267;-88
2022/10/16 08:55:25;;;;;;;5.80;4.20;;;18.40;99.90;;;;;;5045197;28;20637;-87
2022/10/16 08:57:52;;;;;;;4.00;3.10;;;18.20;99.90;;;;;;5038976;28;20620;-87
2022/10/16 09:00:19;;;;;;;7.70;2.13;;;18.20;99.90;;;;;;5047517;28;20641;-85
2022/10/16 09:02:53;;;;;;;1.50;1.40;;;18.20;99.90;;;;;;5042100;28;20657;-86
2022/10/16 09:05:31;;;;;;;3.27;1.97;;;18.10;99.90;;;;;;5044730;28;20945;-88
2022/10/16 09:08:09;;;;;;;3.73;2.40;;;18.00;99.90;;;;;;5042591;28;20665;-85
2022/10/16 09:10:44;;;;;;;2.20;1.50;;;18.10;99.90;;;;;;5044467;28;20633;-86
2022/10/16 09:13:20;;;;;;;2.17;1.93;;;18.30;99.90;;;;;;5046438;28;20681;-86
2022/10/16 09:15:56;;;;;;;3.90;2.10;;;18.40;99.90;;;;;;5041227;28;20625;-87
2022/10/16 09:18:30;;;;;;;4.70;2.60;;;18.20;99.90;;;;;;5042721;28;20629;-87
2022/10/16 09:21:05;;;;;;;2.63;2.13;;;18.20;99.90;;;;;;5045997;28;20634;-87
2022/10/16 09:23:36;;;;;;;5.53;2.03;;;18.50;99.90;;;;;;5055101;28;20638;-87
2022/10/16 09:26:04;;;;;;;2.00;1.90;;;18.90;99.90;;;;;;5049767;28;20621;-87
2022/10/16 09:28:31;;;;;;;2.03;1.93;;;19.30;99.90;;;;;;5045133;28;21191;-87
2022/10/16 09:30:58;;;;;;;2.73;2.07;;;19.40;99.90;;;;;;5034187;28;20648;-87
2022/10/16 09:33:30;;;;;;;7.33;2.20;;;19.50;99.90;;;;;;5045174;28;20681;-87
2022/10/16 09:35:59;;;;;;;2.70;1.70;;;19.10;99.90;;;;;;5036632;28;20622;-87
2022/10/16 09:38:28;;;;;;;4.70;2.10;;;19.40;99.90;;;;;;5048345;28;20687;-87
2022/10/16 09:40:56;;;;;;;4.53;2.03;;;19.80;99.90;;;;;;5044020;28;21281;-87
2022/10/16 09:43:27;;;;;;;3.33;1.17;;;19.90;99.90;;;;;;5053214;28;20642;-87
2022/10/16 09:46:04;;;;;;;4.90;1.57;;;20.00;99.90;;;;;;5051401;28;20703;-89
2022/10/16 09:48:38;;;;;;;2.27;1.47;;;20.90;99.90;;;;;;5068235;28;20617;-88
2022/10/16 09:51:07;;;;;;;2.60;1.80;;;21.80;99.90;;;;;;5064695;28;20598;-88
2022/10/16 09:53:43;;;;;;;2.27;1.20;;;21.60;99.90;;;;;;5063496;28;20738;-88
2022/10/16 09:56:13;;;;;;;2.37;1.70;;;21.60;99.90;;;;;;5052199;28;20625;-87
2022/10/16 09:58:45;;;;;;;3.43;1.53;;;22.20;99.90;;;;;;5042350;28;20633;-89
2022/10/16 10:01:15;;;;;;;5.43;1.90;;;22.80;99.90;;;;;;5044819;28;20636;-88
2022/10/16 10:03:46;;;;;;;2.83;1.33;;;22.70;99.90;;;;;;5018944;28;20641;-88
2022/10/16 10:06:20;;;;;;;1.87;1.63;;;23.40;99.90;;;;;;5046591;28;20691;-88
2022/10/16 10:08:58;;;;;;;5.03;1.43;;;23.50;99.90;;;;;;5036971;28;20721;-89
2022/10/16 10:11:44;;;;;;;3.33;1.57;;;24.70;99.90;;;;;;5035431;28;21022;-88
2022/10/16 10:14:20;;;;;;;8.63;1.73;;;25.60;99.90;;;;;;5038481;28;20669;-89
2022/10/16 10:16:48;;;;;;;3.93;1.47;;;26.60;99.90;;;;;;5036146;28;21132;-89
2022/10/16 10:19:18;;;;;;;3.60;1.50;;;26.00;99.90;;;;;;5044300;28;20664;-89
2022/10/16 10:21:44;;;;;;;3.67;1.33;;;25.80;99.90;;;;;;5041510;28;20654;-89
2022/10/16 10:24:13;;;;;;;3.50;1.97;;;25.30;99.90;;;;;;5041855;28;20985;-88
2022/10/16 10:26:42;;;;;;;3.07;1.57;;;25.10;99.90;;;;;;5039183;28;20634;-88
2022/10/16 10:29:18;;;;;;;5.33;1.63;;;25.10;99.90;;;;;;5044815;28;21454;-88
2022/10/16 10:31:55;;;;;;;2.63;1.20;;;24.40;99.90;;;;;;5045469;28;20641;-88
2022/10/16 10:34:36;;;;;;;1.70;1.60;;;24.00;99.90;;;;;;5041251;28;20630;-87
2022/10/16 10:37:12;;;;;;;5.97;1.47;;;24.70;99.90;;;;;;5054783;28;20789;-89
2022/10/16 10:39:44;;;;;;;1.40;1.30;;;24.80;99.90;;;;;;5048022;28;20629;-88
2022/10/16 10:42:23;;;;;;;3.87;1.63;;;25.60;99.90;;;;;;5040691;28;21035;-88
2022/10/16 10:45:04;;;;;;;2.77;1.43;;;26.10;99.90;;;;;;5044464;28;20626;-88
2022/10/16 10:47:42;;;;;;;2.33;1.40;;;26.80;99.90;;;;;;5043546;28;20634;-89
2022/10/16 10:50:18;;;;;;;4.20;1.50;;;27.90;96.00;;;;;;5044963;28;20623;-88
2022/10/16 10:52:57;;;;;;;1.30;1.20;;;28.40;92.40;;;;;;5041299;28;20735;-89
2022/10/16 10:55:32;;;;;;;3.43;1.80;;;29.50;88.10;;;;;;5043602;28;20997;-89
2022/10/16 10:58:23;;;;;;;1.40;1.30;;;29.90;81.20;;;;;;5041964;28;21451;-89
2022/10/16 11:00:58;;;;;;;2.57;1.40;;;31.10;79.80;;;;;;5044102;28;21254;-89
2022/10/16 11:03:41;;;;;;;4.40;1.70;;;29.60;75.50;;;;;;5040940;28;20659;-88
2022/10/16 11:06:13;;;;;;;2.33;1.27;;;27.30;87.90;;;;;;5040456;28;20643;-89
2022/10/16 11:08:45;;;;;;;2.57;1.70;;;28.30;82.00;;;;;;5045915;28;21198;-88
2022/10/16 11:11:19;;;;;;;2.13;1.27;;;28.70;79.80;;;;;;5038420;28;20632;-89
2022/10/16 11:13:55;;;;;;;3.90;2.70;;;28.00;80.90;;;;;;5041026;28;20754;-88
2022/10/16 11:16:27;;;;;;;1.83;1.13;;;29.20;77.60;;;;;;5040315;28;21174;-89
2022/10/16 11:19:00;;;;;;;2.73;1.27;;;28.60;80.60;;;;;;5041202;28;21114;-89
2022/10/16 11:21:35;;;;;;;1.20;1.10;;;29.30;73.30;;;;;;5035043;28;21143;-89
2022/10/16 11:24:14;;;;;;;1.20;0.97;;;29.70;72.50;;;;;;5039954;28;21051;-89
2022/10/16 11:26:43;;;;;;;3.20;1.60;;;31.60;68.10;;;;;;5038841;28;21388;-89
2022/10/16 11:29:17;;;;;;;3.20;1.60;;;30.00;67.60;;;;;;5045418;28;20640;-89
2022/10/16 11:31:48;;;;;;;2.60;1.23;;;30.60;66.80;;;;;;5040503;28;20645;-89
2022/10/16 11:34:23;;;;;;;5.93;1.83;;;28.90;67.10;;;;;;5038273;28;20685;-89
2022/10/16 11:36:56;;;;;;;2.07;1.63;;;27.00;69.50;;;;;;5040590;28;20616;-89
2022/10/16 11:39:26;;;;;;;3.60;1.37;;;28.20;73.20;;;;;;5042408;28;20644;-88
2022/10/16 11:41:56;;;;;;;2.03;1.30;;;28.50;70.20;;;;;;5044435;28;20661;-88
2022/10/16 11:44:41;;;;;;;2.47;1.50;;;27.90;74.00;;;;;;5038524;28;20630;-88
2022/10/16 11:47:23;;;;;;;1.53;1.27;;;29.40;73.10;;;;;;5042861;28;20617;-88
2022/10/16 11:49:57;;;;;;;3.63;1.70;;;30.30;68.50;;;;;;5039802;28;20693;-88
2022/10/16 11:52:34;;;;;;;1.30;1.20;;;31.40;63.50;;;;;;5041850;28;20675;-88
2022/10/16 11:55:06;;;;;;;2.50;1.50;;;28.70;71.20;;;;;;5041440;28;20636;-88
2022/10/16 11:57:37;;;;;;;1.47;0.90;;;28.30;71.60;;;;;;5041538;28;20641;-89
2022/10/16 12:00:10;;;;;;;4.27;1.83;;;29.50;67.80;;;;;;5043538;28;20613;-89
2022/10/16 12:02:50;;;;;;;2.70;1.40;;;29.00;69.50;;;;;;5048413;28;20788;-89
2022/10/16 12:05:24;;;;;;;2.60;1.30;;;29.60;67.10;;;;;;5048399;28;20633;-90
2022/10/16 12:08:02;;;;;;;2.57;1.40;;;31.10;61.90;;;;;;5048682;28;20635;-90
2022/10/16 12:10:36;;;;;;;1.60;1.10;;;32.90;57.60;;;;;;5048976;28;21238;-87
2022/10/16 12:13:03;;;;;;;3.60;1.10;;;33.70;54.40;;;;;;5051820;28;20296;-87
2022/10/16 12:15:32;;;;;;;1.30;1.20;;;32.30;53.20;;;;;;5052042;28;20211;-90
2022/10/16 12:17:59;;;;;;;3.47;1.17;;;31.80;55.70;;;;;;5045370;28;20227;-88
2022/10/16 12:20:31;;;;;;;2.23;1.10;;;31.60;55.90;;;;;;5050129;28;20289;-88
2022/10/16 12:23:02;;;;;;;2.30;1.10;;;31.20;57.30;;;;;;5049057;28;21016;-89
2022/10/16 12:25:32;;;;;;;1.80;1.33;;;32.40;56.40;;;;;;5044183;28;20203;-88
2022/10/16 12:28:02;;;;;;;1.80;1.67;;;31.80;54.10;;;;;;5049735;28;20207;-88
2022/10/16 12:30:31;;;;;;;2.30;1.20;;;31.20;55.30;;;;;;5047130;28;20284;-88
2022/10/16 12:33:01;;;;;;;2.10;1.23;;;31.80;53.10;;;;;;5045252;28;20237;-89
2022/10/16 12:35:31;;;;;;;1.10;1.00;;;32.00;53.90;;;;;;5047293;28;20203;-89
2022/10/16 12:38:09;;;;;;;4.75;1.73;;;33.10;51.20;;;;;;5044850;28;20203;-89
2022/10/16 12:40:38;;;;;;;2.97;1.20;;;32.80;51.80;;;;;;5040218;28;20241;-89
2022/10/16 12:43:24;;;;;;;1.55;1.10;;;31.40;53.20;;;;;;5045963;28;20235;-89
2022/10/16 12:46:01;;;;;;;2.30;1.10;;;32.20;51.50;;;;;;5045745;28;20204;-89
2022/10/16 12:48:28;;;;;;;3.67;1.40;;;33.00;50.90;;;;;;5045599;28;20260;-89
2022/10/16 12:50:58;;;;;;;2.00;1.10;;;32.30;52.80;;;;;;5044093;28;20238;-89
2022/10/16 12:53:28;;;;;;;2.47;1.25;;;31.70;51.60;;;;;;5042664;28;20254;-89
2022/10/16 12:56:09;;;;;;;2.15;1.08;;;32.50;50.80;;;;;;5049267;28;20294;-89
2022/10/16 12:58:50;;;;;;;2.72;1.45;;;32.80;49.90;;;;;;5046402;28;20224;-88
2022/10/16 13:01:28;;;;;;;2.70;1.20;;;30.40;53.50;;;;;;5040566;28;20204;-88